Launceston Airport, Tasmania

3:01 AM AEST on July 31, 2016 (GMT +1000)
8 Drummond Crescent | | Change Station

Elev 545 ft 41.58 °S, 147.17 °E | Updated 1 minute ago

Light Rain
Light Rain
51.4 °F
Feels Like 51.4 °F
N
10.0
Wind Variable Wind from NW
Gusts 20.0 mph

Today
High -- | Low -- °F
--% Chance of Precip.
Yesterday
High -- | Low -- °F
Precip. -- in
Pressure 29.65 in
Visibility 6.2 miles
Clouds Scattered Clouds 1000 ft
Scattered Clouds 5800 ft
Mostly Cloudy 8600 ft
Dew Point 47 °F
Humidity 85%
Rainfall 0.13 in
Snow Depth Not available.
7:20 AM 5:15 PM
Waning Crescent, 12% visible
SPECI YMLT 301645Z AUTO 34018KT 9999 -RA SCT010 SCT058 BKN086 10/09 Q1004 RERA
Pressure 29.65 in
Visibility 6.2 miles
Clouds Scattered Clouds 1000 ft
Scattered Clouds 5800 ft
Mostly Cloudy 8600 ft
Dew Point 47 °F
Humidity 85%
Rainfall 0.13 in
Snow Depth Not available.
7:20 AM 5:15 PM
Waning Crescent, 12% visible
SPECI YMLT 301645Z AUTO 34018KT 9999 -RA SCT010 SCT058 BKN086 10/09 Q1004 RERA

10-Day Weather Forecast

No radar image for this location.
×

Almanac

Astronomy

Jul. 31, 2016 Rise Set
Actual Time
Civil Twilight
Nautical Twilight
Astronomical Twilight
Moon
Length of Visible Light
Length of Day
Tomorrow will be .
, % of the Moon is Illuminated

Today's Extremes

Country Highs Country Lows

Community

WunderPhotos

Upload Photos

1,928,598 photos uploaded!

WunderBlog® & News

Nearby

Air Quality

  Air Quality AQ Index Pollutant
Not available.

Snow Depth

Station Depth Elevation

Earthquake Activity

City Distance Mag. Time & Date
Minimum magnitude displayed is 2.5.

Coastal Water Temperatures

Place Temperature

Stations

Nearby Weather Stations

Station Location Temp. Windchill Dew Point Humidity Wind Precip. Elev Updated Type